sensor_id;sensor_type;location;lat;lon;timestamp;P1;durP1;ratioP1;P2;durP2;ratioP2
32096;SDS011;18610;49.916;8.284;2022-12-20T00:01:00;79.07;;;38.08;;
32096;SDS011;18610;49.916;8.284;2022-12-20T00:03:27;89.18;;;38.85;;
32096;SDS011;18610;49.916;8.284;2022-12-20T00:05:53;81.85;;;39.53;;
32096;SDS011;18610;49.916;8.284;2022-12-20T00:08:20;74.28;;;36.35;;
32096;SDS011;18610;49.916;8.284;2022-12-20T00:10:47;88.53;;;37.00;;
32096;SDS011;18610;49.916;8.284;2022-12-20T00:13:14;87.38;;;38.95;;
32096;SDS011;18610;49.916;8.284;2022-12-20T00:15:42;91.40;;;41.05;;
32096;SDS011;18610;49.916;8.284;2022-12-20T00:18:09;80.78;;;38.97;;
32096;SDS011;18610;49.916;8.284;2022-12-20T00:20:35;89.43;;;41.78;;
32096;SDS011;18610;49.916;8.284;2022-12-20T00:23:02;83.38;;;38.95;;
32096;SDS011;18610;49.916;8.284;2022-12-20T00:25:29;80.88;;;37.33;;
32096;SDS011;18610;49.916;8.284;2022-12-20T00:27:56;89.18;;;40.80;;
32096;SDS011;18610;49.916;8.284;2022-12-20T00:30:23;82.57;;;40.05;;
32096;SDS011;18610;49.916;8.284;2022-12-20T00:32:51;78.82;;;38.17;;
32096;SDS011;18610;49.916;8.284;2022-12-20T00:35:18;75.90;;;34.88;;
32096;SDS011;18610;49.916;8.284;2022-12-20T00:37:45;77.95;;;35.75;;
32096;SDS011;18610;49.916;8.284;2022-12-20T00:40:12;73.72;;;36.03;;
32096;SDS011;18610;49.916;8.284;2022-12-20T00:42:39;74.82;;;35.97;;
32096;SDS011;18610;49.916;8.284;2022-12-20T00:45:06;77.28;;;37.70;;
32096;SDS011;18610;49.916;8.284;2022-12-20T00:47:33;80.22;;;37.67;;
32096;SDS011;18610;49.916;8.284;2022-12-20T00:50:02;81.07;;;36.88;;
32096;SDS011;18610;49.916;8.284;2022-12-20T00:52:29;81.78;;;36.92;;
32096;SDS011;18610;49.916;8.284;2022-12-20T00:54:56;86.75;;;37.22;;
32096;SDS011;18610;49.916;8.284;2022-12-20T00:57:22;77.30;;;36.25;;
32096;SDS011;18610;49.916;8.284;2022-12-20T00:59:49;71.70;;;35.67;;
32096;SDS011;18610;49.916;8.284;2022-12-20T01:02:16;81.00;;;37.40;;
32096;SDS011;18610;49.916;8.284;2022-12-20T01:04:42;74.85;;;34.90;;
32096;SDS011;18610;49.916;8.284;2022-12-20T01:07:10;74.22;;;35.28;;
32096;SDS011;18610;49.916;8.284;2022-12-20T01:09:38;75.10;;;37.00;;
32096;SDS011;18610;49.916;8.284;2022-12-20T01:12:04;74.50;;;35.30;;
32096;SDS011;18610;49.916;8.284;2022-12-20T01:14:33;78.40;;;35.65;;
32096;SDS011;18610;49.916;8.284;2022-12-20T01:16:59;80.13;;;36.83;;
32096;SDS011;18610;49.916;8.284;2022-12-20T01:19:26;78.22;;;36.90;;
32096;SDS011;18610;49.916;8.284;2022-12-20T01:21:53;74.22;;;35.70;;
32096;SDS011;18610;49.916;8.284;2022-12-20T01:24:21;81.72;;;38.65;;
32096;SDS011;18610;49.916;8.284;2022-12-20T01:26:48;77.47;;;37.08;;
32096;SDS011;18610;49.916;8.284;2022-12-20T01:29:15;78.95;;;36.53;;
32096;SDS011;18610;49.916;8.284;2022-12-20T01:31:42;78.03;;;36.72;;
32096;SDS011;18610;49.916;8.284;2022-12-20T01:34:09;77.95;;;37.03;;
32096;SDS011;18610;49.916;8.284;2022-12-20T01:36:36;75.72;;;35.35;;
32096;SDS011;18610;49.916;8.284;2022-12-20T01:39:06;75.72;;;35.00;;
32096;SDS011;18610;49.916;8.284;2022-12-20T01:41:37;69.18;;;34.05;;
32096;SDS011;18610;49.916;8.284;2022-12-20T01:44:05;69.03;;;33.00;;
32096;SDS011;18610;49.916;8.284;2022-12-20T01:46:52;84.72;;;36.05;;
32096;SDS011;18610;49.916;8.284;2022-12-20T01:49:21;78.43;;;36.13;;
32096;SDS011;18610;49.916;8.284;2022-12-20T01:51:51;82.28;;;36.72;;
32096;SDS011;18610;49.916;8.284;2022-12-20T01:54:24;66.43;;;33.65;;
32096;SDS011;18610;49.916;8.284;2022-12-20T01:56:56;74.60;;;35.53;;
32096;SDS011;18610;49.916;8.284;2022-12-20T01:59:27;87.03;;;35.80;;
32096;SDS011;18610;49.916;8.284;2022-12-20T02:01:55;77.00;;;34.38;;
32096;SDS011;18610;49.916;8.284;2022-12-20T02:04:24;74.80;;;34.55;;
32096;SDS011;18610;49.916;8.284;2022-12-20T02:06:50;82.00;;;35.35;;
32096;SDS011;18610;49.916;8.284;2022-12-20T02:09:17;74.30;;;35.45;;
32096;SDS011;18610;49.916;8.284;2022-12-20T02:11:46;83.53;;;35.05;;
32096;SDS011;18610;49.916;8.284;2022-12-20T02:14:27;75.15;;;34.00;;
32096;SDS011;18610;49.916;8.284;2022-12-20T02:17:02;75.97;;;34.72;;
32096;SDS011;18610;49.916;8.284;2022-12-20T02:19:44;77.18;;;32.70;;
32096;SDS011;18610;49.916;8.284;2022-12-20T02:22:43;74.70;;;32.30;;
32096;SDS011;18610;49.916;8.284;2022-12-20T02:25:27;69.45;;;31.85;;
32096;SDS011;18610;49.916;8.284;2022-12-20T02:28:11;73.55;;;31.23;;
32096;SDS011;18610;49.916;8.284;2022-12-20T02:30:57;72.78;;;34.03;;
32096;SDS011;18610;49.916;8.284;2022-12-20T02:33:28;68.25;;;33.55;;
32096;SDS011;18610;49.916;8.284;2022-12-20T02:35:55;71.63;;;32.92;;
32096;SDS011;18610;49.916;8.284;2022-12-20T02:38:23;76.20;;;33.15;;
32096;SDS011;18610;49.916;8.284;2022-12-20T02:40:53;73.00;;;33.88;;
32096;SDS011;18610;49.916;8.284;2022-12-20T02:43:23;79.72;;;34.97;;
32096;SDS011;18610;49.916;8.284;2022-12-20T02:46:11;77.07;;;35.42;;
32096;SDS011;18610;49.916;8.284;2022-12-20T02:48:38;75.35;;;34.33;;
32096;SDS011;18610;49.916;8.284;2022-12-20T02:51:06;73.15;;;33.90;;
32096;SDS011;18610;49.916;8.284;2022-12-20T02:53:34;77.43;;;33.50;;
32096;SDS011;18610;49.916;8.284;2022-12-20T02:56:03;73.75;;;34.25;;
32096;SDS011;18610;49.916;8.284;2022-12-20T02:58:38;86.90;;;38.30;;
32096;SDS011;18610;49.916;8.284;2022-12-20T03:01:13;77.55;;;36.00;;
32096;SDS011;18610;49.916;8.284;2022-12-20T03:03:47;93.97;;;37.22;;
32096;SDS011;18610;49.916;8.284;2022-12-20T03:06:14;87.00;;;37.40;;
32096;SDS011;18610;49.916;8.284;2022-12-20T03:08:42;82.22;;;36.05;;
32096;SDS011;18610;49.916;8.284;2022-12-20T03:11:09;87.22;;;36.03;;
32096;SDS011;18610;49.916;8.284;2022-12-20T03:13:35;76.00;;;35.85;;
32096;SDS011;18610;49.916;8.284;2022-12-20T03:16:03;79.05;;;36.83;;
32096;SDS011;18610;49.916;8.284;2022-12-20T03:18:31;75.00;;;33.47;;
32096;SDS011;18610;49.916;8.284;2022-12-20T03:20:58;84.93;;;35.22;;
32096;SDS011;18610;49.916;8.284;2022-12-20T03:23:25;75.55;;;37.55;;
32096;SDS011;18610;49.916;8.284;2022-12-20T03:25:52;81.75;;;34.90;;
32096;SDS011;18610;49.916;8.284;2022-12-20T03:28:19;75.32;;;32.97;;
32096;SDS011;18610;49.916;8.284;2022-12-20T03:30:46;87.40;;;37.00;;
32096;SDS011;18610;49.916;8.284;2022-12-20T03:33:14;83.00;;;36.10;;
32096;SDS011;18610;49.916;8.284;2022-12-20T03:35:42;76.85;;;36.05;;
32096;SDS011;18610;49.916;8.284;2022-12-20T03:38:09;74.25;;;36.20;;
32096;SDS011;18610;49.916;8.284;2022-12-20T03:40:35;93.30;;;39.03;;
32096;SDS011;18610;49.916;8.284;2022-12-20T03:43:02;80.72;;;37.15;;
32096;SDS011;18610;49.916;8.284;2022-12-20T03:45:29;86.20;;;37.17;;
32096;SDS011;18610;49.916;8.284;2022-12-20T03:47:56;91.90;;;37.70;;
32096;SDS011;18610;49.916;8.284;2022-12-20T03:50:22;79.82;;;38.05;;
32096;SDS011;18610;49.916;8.284;2022-12-20T03:52:50;78.05;;;35.92;;
32096;SDS011;18610;49.916;8.284;2022-12-20T03:55:17;86.55;;;38.92;;
32096;SDS011;18610;49.916;8.284;2022-12-20T03:57:44;93.22;;;38.42;;
32096;SDS011;18610;49.916;8.284;2022-12-20T04:00:11;85.68;;;37.40;;
32096;SDS011;18610;49.916;8.284;2022-12-20T04:02:38;77.63;;;36.08;;
32096;SDS011;18610;49.916;8.284;2022-12-20T04:05:06;86.80;;;37.90;;
32096;SDS011;18610;49.916;8.284;2022-12-20T04:07:33;87.45;;;37.35;;
32096;SDS011;18610;49.916;8.284;2022-12-20T04:10:01;102.28;;;39.83;;
32096;SDS011;18610;49.916;8.284;2022-12-20T04:12:29;84.22;;;36.08;;
32096;SDS011;18610;49.916;8.284;2022-12-20T04:14:56;68.15;;;34.40;;
32096;SDS011;18610;49.916;8.284;2022-12-20T04:17:23;70.75;;;32.05;;
32096;SDS011;18610;49.916;8.284;2022-12-20T04:19:50;71.22;;;36.03;;
32096;SDS011;18610;49.916;8.284;2022-12-20T04:22:16;76.38;;;34.55;;
32096;SDS011;18610;49.916;8.284;2022-12-20T04:24:43;76.32;;;35.50;;
32096;SDS011;18610;49.916;8.284;2022-12-20T04:27:11;70.97;;;33.95;;
32096;SDS011;18610;49.916;8.284;2022-12-20T04:29:38;74.50;;;34.08;;
32096;SDS011;18610;49.916;8.284;2022-12-20T04:32:05;77.50;;;33.80;;
32096;SDS011;18610;49.916;8.284;2022-12-20T04:34:31;78.28;;;33.33;;
32096;SDS011;18610;49.916;8.284;2022-12-20T04:36:58;76.00;;;35.15;;
32096;SDS011;18610;49.916;8.284;2022-12-20T04:39:25;65.95;;;32.92;;
32096;SDS011;18610;49.916;8.284;2022-12-20T04:41:52;72.07;;;33.30;;
32096;SDS011;18610;49.916;8.284;2022-12-20T04:44:20;74.57;;;33.95;;
32096;SDS011;18610;49.916;8.284;2022-12-20T04:46:47;73.63;;;33.33;;
32096;SDS011;18610;49.916;8.284;2022-12-20T04:49:14;73.78;;;34.20;;
32096;SDS011;18610;49.916;8.284;2022-12-20T04:51:40;81.80;;;37.05;;
32096;SDS011;18610;49.916;8.284;2022-12-20T04:54:07;77.05;;;35.40;;
32096;SDS011;18610;49.916;8.284;2022-12-20T04:56:33;70.78;;;34.65;;
32096;SDS011;18610;49.916;8.284;2022-12-20T04:59:00;77.10;;;35.67;;
32096;SDS011;18610;49.916;8.284;2022-12-20T05:01:29;73.65;;;34.10;;
32096;SDS011;18610;49.916;8.284;2022-12-20T05:03:56;72.90;;;33.53;;
32096;SDS011;18610;49.916;8.284;2022-12-20T05:06:23;78.28;;;35.17;;
32096;SDS011;18610;49.916;8.284;2022-12-20T05:08:49;74.55;;;35.85;;
32096;SDS011;18610;49.916;8.284;2022-12-20T05:11:16;70.10;;;35.47;;
32096;SDS011;18610;49.916;8.284;2022-12-20T05:13:43;76.60;;;35.13;;
32096;SDS011;18610;49.916;8.284;2022-12-20T05:16:10;91.78;;;35.80;;
32096;SDS011;18610;49.916;8.284;2022-12-20T05:18:39;77.30;;;36.03;;
32096;SDS011;18610;49.916;8.284;2022-12-20T05:21:06;80.32;;;38.20;;
32096;SDS011;18610;49.916;8.284;2022-12-20T05:23:50;82.65;;;37.17;;
32096;SDS011;18610;49.916;8.284;2022-12-20T05:26:34;85.53;;;37.40;;
32096;SDS011;18610;49.916;8.284;2022-12-20T05:29:02;81.97;;;35.05;;
32096;SDS011;18610;49.916;8.284;2022-12-20T05:31:30;78.28;;;35.38;;
32096;SDS011;18610;49.916;8.284;2022-12-20T05:33:58;85.88;;;41.53;;
32096;SDS011;18610;49.916;8.284;2022-12-20T05:36:25;79.78;;;35.03;;
32096;SDS011;18610;49.916;8.284;2022-12-20T05:38:52;80.63;;;35.85;;
32096;SDS011;18610;49.916;8.284;2022-12-20T05:41:18;83.43;;;38.13;;
32096;SDS011;18610;49.916;8.284;2022-12-20T05:43:45;81.15;;;36.20;;
32096;SDS011;18610;49.916;8.284;2022-12-20T05:46:12;85.25;;;34.95;;
32096;SDS011;18610;49.916;8.284;2022-12-20T05:48:39;75.43;;;34.78;;
32096;SDS011;18610;49.916;8.284;2022-12-20T05:51:07;76.28;;;35.35;;
32096;SDS011;18610;49.916;8.284;2022-12-20T05:53:34;80.72;;;37.60;;
32096;SDS011;18610;49.916;8.284;2022-12-20T05:56:01;81.70;;;36.60;;
32096;SDS011;18610;49.916;8.284;2022-12-20T05:58:28;80.45;;;37.58;;
32096;SDS011;18610;49.916;8.284;2022-12-20T06:00:54;87.43;;;37.75;;
32096;SDS011;18610;49.916;8.284;2022-12-20T06:03:21;83.55;;;35.35;;
32096;SDS011;18610;49.916;8.284;2022-12-20T06:05:48;76.35;;;36.03;;
32096;SDS011;18610;49.916;8.284;2022-12-20T06:08:16;77.90;;;34.95;;
32096;SDS011;18610;49.916;8.284;2022-12-20T06:10:43;73.20;;;34.70;;
32096;SDS011;18610;49.916;8.284;2022-12-20T06:13:10;85.32;;;36.13;;
32096;SDS011;18610;49.916;8.284;2022-12-20T06:15:37;82.07;;;37.83;;
32096;SDS011;18610;49.916;8.284;2022-12-20T06:18:04;83.68;;;36.90;;
32096;SDS011;18610;49.916;8.284;2022-12-20T06:20:31;82.63;;;35.53;;
32096;SDS011;18610;49.916;8.284;2022-12-20T06:22:58;76.13;;;34.00;;
32096;SDS011;18610;49.916;8.284;2022-12-20T06:25:26;73.07;;;35.80;;
32096;SDS011;18610;49.916;8.284;2022-12-20T06:27:52;79.75;;;36.97;;
32096;SDS011;18610;49.916;8.284;2022-12-20T06:30:19;77.78;;;35.67;;
32096;SDS011;18610;49.916;8.284;2022-12-20T06:32:47;83.53;;;35.83;;
32096;SDS011;18610;49.916;8.284;2022-12-20T06:35:14;80.95;;;34.85;;
32096;SDS011;18610;49.916;8.284;2022-12-20T06:37:41;79.05;;;35.20;;
32096;SDS011;18610;49.916;8.284;2022-12-20T06:40:08;90.43;;;37.63;;
32096;SDS011;18610;49.916;8.284;2022-12-20T06:42:38;72.90;;;36.10;;
32096;SDS011;18610;49.916;8.284;2022-12-20T06:45:05;78.28;;;36.97;;
32096;SDS011;18610;49.916;8.284;2022-12-20T06:47:33;70.78;;;34.58;;
32096;SDS011;18610;49.916;8.284;2022-12-20T06:49:59;82.60;;;36.38;;
32096;SDS011;18610;49.916;8.284;2022-12-20T06:52:26;78.05;;;37.00;;
32096;SDS011;18610;49.916;8.284;2022-12-20T06:54:53;82.43;;;35.65;;
32096;SDS011;18610;49.916;8.284;2022-12-20T06:57:20;102.32;;;36.83;;
32096;SDS011;18610;49.916;8.284;2022-12-20T06:59:48;86.10;;;38.55;;
32096;SDS011;18610;49.916;8.284;2022-12-20T07:02:15;75.65;;;33.78;;
32096;SDS011;18610;49.916;8.284;2022-12-20T07:04:41;77.20;;;36.35;;
32096;SDS011;18610;49.916;8.284;2022-12-20T07:07:08;83.30;;;36.22;;
32096;SDS011;18610;49.916;8.284;2022-12-20T07:09:37;76.53;;;34.25;;
32096;SDS011;18610;49.916;8.284;2022-12-20T07:12:05;85.72;;;35.55;;
32096;SDS011;18610;49.916;8.284;2022-12-20T07:14:32;69.95;;;34.58;;
32096;SDS011;18610;49.916;8.284;2022-12-20T07:17:00;74.55;;;36.38;;
32096;SDS011;18610;49.916;8.284;2022-12-20T07:19:27;72.95;;;34.67;;
32096;SDS011;18610;49.916;8.284;2022-12-20T07:21:54;87.68;;;37.50;;
32096;SDS011;18610;49.916;8.284;2022-12-20T07:24:21;81.93;;;36.72;;
32096;SDS011;18610;49.916;8.284;2022-12-20T07:26:48;84.93;;;37.17;;
32096;SDS011;18610;49.916;8.284;2022-12-20T07:29:14;84.55;;;34.28;;
32096;SDS011;18610;49.916;8.284;2022-12-20T07:31:41;81.63;;;38.00;;
32096;SDS011;18610;49.916;8.284;2022-12-20T07:34:10;96.75;;;37.03;;
32096;SDS011;18610;49.916;8.284;2022-12-20T07:36:37;84.55;;;37.25;;
32096;SDS011;18610;49.916;8.284;2022-12-20T07:39:04;67.80;;;35.22;;
32096;SDS011;18610;49.916;8.284;2022-12-20T07:41:31;76.55;;;36.28;;
32096;SDS011;18610;49.916;8.284;2022-12-20T07:43:58;69.63;;;35.03;;
32096;SDS011;18610;49.916;8.284;2022-12-20T07:46:25;69.38;;;33.45;;
32096;SDS011;18610;49.916;8.284;2022-12-20T07:48:52;77.72;;;37.15;;
32096;SDS011;18610;49.916;8.284;2022-12-20T07:51:22;76.32;;;33.53;;
32096;SDS011;18610;49.916;8.284;2022-12-20T07:53:52;83.28;;;33.95;;
32096;SDS011;18610;49.916;8.284;2022-12-20T07:58:51;73.35;;;34.10;;
32096;SDS011;18610;49.916;8.284;2022-12-20T08:01:22;76.30;;;35.33;;
32096;SDS011;18610;49.916;8.284;2022-12-20T08:03:51;67.30;;;32.45;;
32096;SDS011;18610;49.916;8.284;2022-12-20T08:06:25;72.20;;;34.00;;
32096;SDS011;18610;49.916;8.284;2022-12-20T08:08:52;85.22;;;36.65;;
32096;SDS011;18610;49.916;8.284;2022-12-20T08:11:22;79.35;;;34.33;;
32096;SDS011;18610;49.916;8.284;2022-12-20T08:13:51;74.53;;;34.38;;
32096;SDS011;18610;49.916;8.284;2022-12-20T08:16:18;84.15;;;36.97;;
32096;SDS011;18610;49.916;8.284;2022-12-20T08:18:45;85.65;;;40.28;;
32096;SDS011;18610;49.916;8.284;2022-12-20T08:21:11;85.03;;;39.10;;
32096;SDS011;18610;49.916;8.284;2022-12-20T08:23:40;86.18;;;39.22;;
32096;SDS011;18610;49.916;8.284;2022-12-20T08:26:07;78.13;;;36.42;;
32096;SDS011;18610;49.916;8.284;2022-12-20T08:28:33;72.88;;;36.40;;
32096;SDS011;18610;49.916;8.284;2022-12-20T08:31:01;75.60;;;36.42;;
32096;SDS011;18610;49.916;8.284;2022-12-20T08:33:28;82.70;;;37.17;;
32096;SDS011;18610;49.916;8.284;2022-12-20T08:35:58;74.03;;;36.47;;
32096;SDS011;18610;49.916;8.284;2022-12-20T08:38:26;86.60;;;39.40;;
32096;SDS011;18610;49.916;8.284;2022-12-20T08:41:00;84.15;;;35.75;;
32096;SDS011;18610;49.916;8.284;2022-12-20T08:43:27;78.22;;;36.67;;
32096;SDS011;18610;49.916;8.284;2022-12-20T08:45:54;84.20;;;35.83;;
32096;SDS011;18610;49.916;8.284;2022-12-20T08:48:21;76.28;;;35.28;;
32096;SDS011;18610;49.916;8.284;2022-12-20T08:50:52;72.43;;;34.65;;
32096;SDS011;18610;49.916;8.284;2022-12-20T08:53:20;74.43;;;35.83;;
32096;SDS011;18610;49.916;8.284;2022-12-20T08:55:47;77.82;;;35.20;;
32096;SDS011;18610;49.916;8.284;2022-12-20T08:58:15;74.72;;;35.15;;
32096;SDS011;18610;49.916;8.284;2022-12-20T09:00:41;84.93;;;36.92;;
32096;SDS011;18610;49.916;8.284;2022-12-20T09:03:08;67.60;;;32.08;;
32096;SDS011;18610;49.916;8.284;2022-12-20T09:05:42;68.25;;;34.83;;
32096;SDS011;18610;49.916;8.284;2022-12-20T09:10:37;70.60;;;33.17;;
32096;SDS011;18610;49.916;8.284;2022-12-20T09:13:04;74.82;;;34.45;;
32096;SDS011;18610;49.916;8.284;2022-12-20T09:15:33;77.40;;;35.50;;
32096;SDS011;18610;49.916;8.284;2022-12-20T09:18:01;73.63;;;34.08;;
32096;SDS011;18610;49.916;8.284;2022-12-20T09:20:29;70.47;;;34.65;;
32096;SDS011;18610;49.916;8.284;2022-12-20T09:22:57;68.65;;;33.60;;
32096;SDS011;18610;49.916;8.284;2022-12-20T09:25:24;68.75;;;34.13;;
32096;SDS011;18610;49.916;8.284;2022-12-20T09:27:51;70.13;;;31.88;;
32096;SDS011;18610;49.916;8.284;2022-12-20T09:30:19;75.38;;;36.30;;
32096;SDS011;18610;49.916;8.284;2022-12-20T09:32:47;72.30;;;34.53;;
32096;SDS011;18610;49.916;8.284;2022-12-20T09:35:14;75.63;;;35.08;;
32096;SDS011;18610;49.916;8.284;2022-12-20T09:37:41;78.10;;;32.80;;
32096;SDS011;18610;49.916;8.284;2022-12-20T09:40:09;69.35;;;35.45;;
32096;SDS011;18610;49.916;8.284;2022-12-20T09:42:42;78.72;;;34.22;;
32096;SDS011;18610;49.916;8.284;2022-12-20T09:45:10;72.20;;;34.97;;
32096;SDS011;18610;49.916;8.284;2022-12-20T09:47:44;82.07;;;35.22;;
32096;SDS011;18610;49.916;8.284;2022-12-20T09:50:14;81.80;;;37.47;;
32096;SDS011;18610;49.916;8.284;2022-12-20T09:52:50;72.15;;;33.83;;
32096;SDS011;18610;49.916;8.284;2022-12-20T09:55:30;70.70;;;35.03;;
32096;SDS011;18610;49.916;8.284;2022-12-20T09:58:09;76.38;;;35.75;;
32096;SDS011;18610;49.916;8.284;2022-12-20T10:00:55;68.95;;;32.85;;
32096;SDS011;18610;49.916;8.284;2022-12-20T10:03:22;79.82;;;35.38;;
32096;SDS011;18610;49.916;8.284;2022-12-20T10:05:55;68.95;;;33.00;;
32096;SDS011;18610;49.916;8.284;2022-12-20T10:08:36;80.53;;;33.22;;
32096;SDS011;18610;49.916;8.284;2022-12-20T10:11:12;74.43;;;33.70;;
32096;SDS011;18610;49.916;8.284;2022-12-20T10:13:53;73.68;;;35.53;;
32096;SDS011;18610;49.916;8.284;2022-12-20T10:16:31;79.18;;;35.38;;
32096;SDS011;18610;49.916;8.284;2022-12-20T10:19:07;74.28;;;35.00;;
32096;SDS011;18610;49.916;8.284;2022-12-20T10:24:18;77.32;;;34.70;;
32096;SDS011;18610;49.916;8.284;2022-12-20T10:26:50;83.93;;;34.25;;
32096;SDS011;18610;49.916;8.284;2022-12-20T10:29:17;70.72;;;32.88;;
32096;SDS011;18610;49.916;8.284;2022-12-20T10:31:46;79.88;;;36.47;;
32096;SDS011;18610;49.916;8.284;2022-12-20T10:34:14;73.50;;;34.53;;
32096;SDS011;18610;49.916;8.284;2022-12-20T10:36:41;68.25;;;35.85;;
32096;SDS011;18610;49.916;8.284;2022-12-20T10:39:09;71.20;;;34.60;;
32096;SDS011;18610;49.916;8.284;2022-12-20T10:41:45;77.70;;;34.45;;
32096;SDS011;18610;49.916;8.284;2022-12-20T10:44:16;81.80;;;36.30;;
32096;SDS011;18610;49.916;8.284;2022-12-20T10:46:49;75.25;;;35.05;;
32096;SDS011;18610;49.916;8.284;2022-12-20T10:49:26;66.72;;;33.08;;
32096;SDS011;18610;49.916;8.284;2022-12-20T10:51:55;64.85;;;33.63;;
32096;SDS011;18610;49.916;8.284;2022-12-20T10:54:27;69.43;;;34.88;;
32096;SDS011;18610;49.916;8.284;2022-12-20T10:56:56;78.57;;;34.78;;
32096;SDS011;18610;49.916;8.284;2022-12-20T10:59:27;76.43;;;36.15;;
32096;SDS011;18610;49.916;8.284;2022-12-20T11:01:57;68.97;;;33.53;;
32096;SDS011;18610;49.916;8.284;2022-12-20T11:04:25;61.95;;;33.60;;
32096;SDS011;18610;49.916;8.284;2022-12-20T11:06:53;72.28;;;35.35;;
32096;SDS011;18610;49.916;8.284;2022-12-20T11:09:29;63.22;;;34.80;;
32096;SDS011;18610;49.916;8.284;2022-12-20T11:12:01;69.30;;;35.00;;
32096;SDS011;18610;49.916;8.284;2022-12-20T11:14:32;81.40;;;37.33;;
32096;SDS011;18610;49.916;8.284;2022-12-20T11:17:02;68.72;;;33.95;;
32096;SDS011;18610;49.916;8.284;2022-12-20T11:19:44;88.82;;;36.72;;
32096;SDS011;18610;49.916;8.284;2022-12-20T11:22:39;74.13;;;34.53;;
32096;SDS011;18610;49.916;8.284;2022-12-20T11:25:19;73.82;;;36.03;;
32096;SDS011;18610;49.916;8.284;2022-12-20T11:28:08;67.43;;;34.38;;
32096;SDS011;18610;49.916;8.284;2022-12-20T11:30:47;98.45;;;37.65;;
32096;SDS011;18610;49.916;8.284;2022-12-20T11:33:33;70.07;;;33.55;;
32096;SDS011;18610;49.916;8.284;2022-12-20T11:36:17;69.20;;;34.53;;
32096;SDS011;18610;49.916;8.284;2022-12-20T11:38:51;86.85;;;37.22;;
32096;SDS011;18610;49.916;8.284;2022-12-20T11:41:26;76.97;;;34.70;;
32096;SDS011;18610;49.916;8.284;2022-12-20T11:44:05;63.45;;;31.45;;
32096;SDS011;18610;49.916;8.284;2022-12-20T11:46:43;69.32;;;32.53;;
32096;SDS011;18610;49.916;8.284;2022-12-20T11:49:34;72.10;;;34.88;;
32096;SDS011;18610;49.916;8.284;2022-12-20T11:52:18;68.47;;;32.40;;
32096;SDS011;18610;49.916;8.284;2022-12-20T11:54:56;65.00;;;33.65;;
32096;SDS011;18610;49.916;8.284;2022-12-20T11:57:31;78.75;;;33.88;;
32096;SDS011;18610;49.916;8.284;2022-12-20T12:00:03;72.90;;;33.15;;
32096;SDS011;18610;49.916;8.284;2022-12-20T12:02:32;71.75;;;37.35;;
32096;SDS011;18610;49.916;8.284;2022-12-20T12:05:03;84.67;;;37.33;;
32096;SDS011;18610;49.916;8.284;2022-12-20T12:07:32;73.07;;;32.10;;
32096;SDS011;18610;49.916;8.284;2022-12-20T12:10:02;71.53;;;34.13;;
32096;SDS011;18610;49.916;8.284;2022-12-20T12:12:36;74.07;;;36.38;;
32096;SDS011;18610;49.916;8.284;2022-12-20T12:15:12;89.85;;;37.28;;
32096;SDS011;18610;49.916;8.284;2022-12-20T12:17:53;78.30;;;35.45;;
32096;SDS011;18610;49.916;8.284;2022-12-20T12:20:28;68.68;;;33.15;;
32096;SDS011;18610;49.916;8.284;2022-12-20T12:23:04;73.45;;;35.08;;
32096;SDS011;18610;49.916;8.284;2022-12-20T12:25:38;75.72;;;34.30;;
32096;SDS011;18610;49.916;8.284;2022-12-20T12:28:08;76.15;;;33.90;;
32096;SDS011;18610;49.916;8.284;2022-12-20T12:30:38;63.75;;;32.20;;
32096;SDS011;18610;49.916;8.284;2022-12-20T12:33:09;66.20;;;33.85;;
32096;SDS011;18610;49.916;8.284;2022-12-20T12:35:44;58.65;;;30.83;;
32096;SDS011;18610;49.916;8.284;2022-12-20T12:38:30;72.40;;;31.73;;
32096;SDS011;18610;49.916;8.284;2022-12-20T12:44:23;63.05;;;33.70;;
32096;SDS011;18610;49.916;8.284;2022-12-20T12:46:58;56.58;;;29.65;;
32096;SDS011;18610;49.916;8.284;2022-12-20T12:49:28;62.72;;;30.70;;
32096;SDS011;18610;49.916;8.284;2022-12-20T12:51:57;59.42;;;30.58;;
32096;SDS011;18610;49.916;8.284;2022-12-20T12:54:26;64.22;;;32.22;;
32096;SDS011;18610;49.916;8.284;2022-12-20T12:56:58;55.53;;;30.77;;
32096;SDS011;18610;49.916;8.284;2022-12-20T13:05:30;57.97;;;30.58;;
32096;SDS011;18610;49.916;8.284;2022-12-20T13:07:58;63.53;;;30.98;;
32096;SDS011;18610;49.916;8.284;2022-12-20T13:13:22;58.38;;;30.10;;
32096;SDS011;18610;49.916;8.284;2022-12-20T13:18:36;61.90;;;30.50;;
32096;SDS011;18610;49.916;8.284;2022-12-20T13:27:02;58.47;;;28.38;;
32096;SDS011;18610;49.916;8.284;2022-12-20T13:36:01;55.95;;;28.50;;
32096;SDS011;18610;49.916;8.284;2022-12-20T13:41:31;59.28;;;30.13;;
32096;SDS011;18610;49.916;8.284;2022-12-20T13:44:17;57.33;;;28.10;;
32096;SDS011;18610;49.916;8.284;2022-12-20T13:47:11;61.95;;;30.73;;
32096;SDS011;18610;49.916;8.284;2022-12-20T13:49:52;60.92;;;31.63;;
32096;SDS011;18610;49.916;8.284;2022-12-20T13:52:28;55.92;;;29.20;;
32096;SDS011;18610;49.916;8.284;2022-12-20T13:54:57;60.03;;;29.58;;
32096;SDS011;18610;49.916;8.284;2022-12-20T13:57:30;55.60;;;28.58;;
32096;SDS011;18610;49.916;8.284;2022-12-20T14:00:00;55.03;;;27.42;;
32096;SDS011;18610;49.916;8.284;2022-12-20T14:02:32;53.00;;;26.58;;
32096;SDS011;18610;49.916;8.284;2022-12-20T14:05:04;62.72;;;29.98;;
32096;SDS011;18610;49.916;8.284;2022-12-20T14:07:38;60.60;;;29.65;;
32096;SDS011;18610;49.916;8.284;2022-12-20T14:10:15;62.53;;;30.02;;
32096;SDS011;18610;49.916;8.284;2022-12-20T14:12:46;52.08;;;28.20;;
32096;SDS011;18610;49.916;8.284;2022-12-20T14:15:19;63.33;;;33.05;;
32096;SDS011;18610;49.916;8.284;2022-12-20T14:17:48;62.10;;;32.17;;
32096;SDS011;18610;49.916;8.284;2022-12-20T14:20:17;59.70;;;31.13;;
32096;SDS011;18610;49.916;8.284;2022-12-20T14:22:51;63.97;;;31.27;;
32096;SDS011;18610;49.916;8.284;2022-12-20T14:25:23;64.05;;;32.20;;
32096;SDS011;18610;49.916;8.284;2022-12-20T14:27:54;67.38;;;32.22;;
32096;SDS011;18610;49.916;8.284;2022-12-20T14:30:25;69.55;;;31.80;;
32096;SDS011;18610;49.916;8.284;2022-12-20T14:32:54;60.03;;;31.15;;
32096;SDS011;18610;49.916;8.284;2022-12-20T14:35:23;64.40;;;33.45;;
32096;SDS011;18610;49.916;8.284;2022-12-20T14:37:54;66.13;;;32.55;;
32096;SDS011;18610;49.916;8.284;2022-12-20T14:40:22;62.50;;;32.53;;
32096;SDS011;18610;49.916;8.284;2022-12-20T14:42:49;62.38;;;31.55;;
32096;SDS011;18610;49.916;8.284;2022-12-20T14:45:18;55.80;;;30.40;;
32096;SDS011;18610;49.916;8.284;2022-12-20T14:47:48;66.45;;;31.27;;
32096;SDS011;18610;49.916;8.284;2022-12-20T14:50:19;73.32;;;31.10;;
32096;SDS011;18610;49.916;8.284;2022-12-20T14:52:50;69.80;;;32.60;;
32096;SDS011;18610;49.916;8.284;2022-12-20T14:55:17;68.25;;;31.08;;
32096;SDS011;18610;49.916;8.284;2022-12-20T14:57:49;56.63;;;27.87;;
32096;SDS011;18610;49.916;8.284;2022-12-20T15:00:21;58.35;;;30.10;;
32096;SDS011;18610;49.916;8.284;2022-12-20T15:08:21;53.37;;;29.63;;
32096;SDS011;18610;49.916;8.284;2022-12-20T15:11:00;52.17;;;29.17;;
32096;SDS011;18610;49.916;8.284;2022-12-20T15:13:36;57.13;;;29.00;;
32096;SDS011;18610;49.916;8.284;2022-12-20T15:16:12;57.50;;;30.73;;
32096;SDS011;18610;49.916;8.284;2022-12-20T15:18:41;61.92;;;31.05;;
32096;SDS011;18610;49.916;8.284;2022-12-20T15:21:11;63.13;;;31.25;;